Meteo Giornale » Osservazioni meteo Canada » Victoria University

ore: 23:00 - Osservazioni Meteo Victoria University
Lat. 48° 27' N Lon. 123° 18' W Alt. 60 metri s.l.m.

sereno

13 °C

Sereno

Temp. 24 Ore

10 °C

21 °C

Nord

1.8 Km/h

Dew point 11 °C

Umidità 87 %

Visibilità  11 Km

Il sole sorge alle ore 06:31

Il sole tramonta alle ore 19:55

Data e Ora Cielo e Fenomeni T °C DP °C Um. % Pres. hPa Vis. km Vento km/h
Ieri h: 23:00 sereno Sereno 13 11 87 0 11 N 1.8
Ieri h: 22:00 sereno Sereno 13 11 87 0 11 N 1.8
Ieri h: 21:00 sereno Sereno 15 11 76 0 10 N 1.8
Ieri h: 20:00 sereno Sereno 17 11 67 0 10 N 1.8
Ieri h: 19:00 sereno Sereno 20 11 56 0 10 N 3.7
Ieri h: 18:00 sereno Sereno 20 12 59 0 10 N 5.5
Ieri h: 17:00 sereno Sereno 20 11 56 0 10 N 7.4
Ieri h: 16:00 sereno Sereno 20 11 56 0 0 N/NE 7.4
Ieri h: 15:00 sereno Sereno 21 12 56 0 0 N 9.3
Ieri h: 14:00 sereno Sereno 20 12 59 0 0 N/NE 9.3
Ieri h: 13:00 sereno Sereno 19 12 63 0 0 N 11.1
Ieri h: 12:00 sereno Sereno 19 12 63 0 0 N 9.3
Ieri h: 11:00 sereno Sereno 19 12 63 0 0 N 5.5
Ieri h: 10:00 sereno Sereno 17 12 72 0 0 N 11.1
Ieri h: 09:00 sereno Sereno 16 13 82 0 0 N 5.5
Ieri h: 08:00 sereno Sereno 15 12 82 0 0 N 5.5
Ieri h: 07:00 sereno Sereno 11 10 93 0 0 N 0
Ieri h: 06:00 sereno Sereno 11 11 100 0 0 N 5.5
Ieri h: 05:00 sereno Sereno 10 10 100 0 0 N 1.8
Ieri h: 04:00 sereno Sereno 10 9 93 0 0 N 1.8
Ieri h: 03:00 sereno Sereno 11 10 93 0 0 N 0
Ieri h: 02:00 sereno Sereno 13 11 87 0 0 N 5.5
Ieri h: 01:00 sereno Sereno 13 11 87 0 0 N 5.5